x

Central Caribbean - 210 Nm Sse Of Kingston, Jamaica (42058) Wave Buoy

6:50 - Tue 16th Sep 2014 All times are EST. -5 hours from GMT.

  • Sig Wave height 3.9ft
  • Swell Direction
  • Peak Period 6s
  • Average Period 5s
  • Wind
    16mph, 18mph gusts
  • Sea Temp 83°f
  • Luft Temp 83°f
  • Sea Pressure 1013.8mb
  • Central Caribbean - 210 Nm Sse Of Kingston, Jamaica
  • Central Caribbean - 210 Nm Sse Of Kingston, Jamaica

More Historic Weather Station data

Upgrade to MSW Pro to gain access to the past 30 days of data for over 8000 Wavebouys and Weather Stations around the globe.

Join Pro

Comparision Forecast

View Surf forecast
   
Di 09/16 6:50 4ft 6s 5s 16 18 mph 1013.8mb 83f 83f
5:50 4ft 7s 5s 16 18 mph 1013.2mb 83f 83f
4:50 4.5ft 7s 5s 16 20 mph 1012.8mb 83f 83f
3:50 4ft 7s 5s 18 20 mph 1012.4mb 83f 83f
2:50 4ft 7s 5s 18 20 mph 1012.3mb 83f 83f
1:50 4ft 7s 5s 18 20 mph 1013mb 83f 83f
12:50 4ft 7s 5s 18 20 mph 1013.2mb 83f 83f
Mo 09/15 11:50 4ft 7s 5s 16 18 mph 1014.3mb 83f 83f
10:50 4ft 7s 5s 16 20 mph 1014.6mb 83f 83f
9:50 4.5ft 7s 5s 16 20 mph 1014.5mb 83f 83f
8:50 4ft 7s 5s 18 20 mph 1014.3mb 83f 83f
7:50 4.5ft 7s 5s 16 18 mph 1013.7mb 83f 83f
6:50 4.5ft 8s 5s 16 18 mph 1013.2mb 83f 83f
5:50 4.5ft 8s 6s 13 16 mph 1012.7mb 83f 83f
4:50 5ft 8s 6s 13 16 mph 1012.4mb 83f 83f
3:50 4.5ft 7s 5s 13 16 mph 1012.4mb 83f 83f
2:50 5ft 7s 6s 13 16 mph 1012.9mb 83f 83f
1:50 5ft 8s 5s 16 18 mph 1013.2mb 83f 83f
12:50 5ft 7s 6s 16 18 mph 1014mb 83f 83f
11:50 6ft 8s 6s 16 18 mph 1014.7mb 83f 83f
10:50 6ft 8s 6s 16 20 mph 1015.5mb 83f 83f
9:50 5.5ft 8s 6s 16 18 mph 1015.6mb 83f 83f
8:50 5.5ft 8s 6s 16 18 mph 1015.4mb 83f 83f
7:50 6ft 8s 6s 18 20 mph 1015.1mb 83f 83f
6:50 5.5ft 8s 5s 18 22 mph 1014.4mb 83f 83f
5:50 6.5ft 8s 6s 20 22 mph 1013.8mb 83f 83f
4:50 7ft 8s 6s 20 22 mph 1013.5mb 83f 83f
3:50 6ft 7s 6s 20 27 mph 1012.9mb 83f 83f
2:50 6ft 8s 6s 20 22 mph 1013mb 83f 83f
1:50 6.5ft 8s 6s 18 20 mph 1013.1mb 83f 83f
12:50 6ft 7s 5s 18 22 mph 1013.6mb 83f 83f
So 09/14 11:50 6ft 8s 5s 18 22 mph 1014mb 83f 83f
10:50 7ft 7s 6s 18 22 mph 1014mb 83f 83f
9:50 6.5ft 8s 6s 20 27 mph 1013.8mb 83f 83f
8:50 7ft 8s 6s 22 25 mph 1013.6mb 83f 83f
7:50 6ft 8s 6s 18 22 mph 1013mb 83f 83f
6:50 7ft 8s 6s 20 25 mph 1012.6mb 83f 84f
5:50 7.5ft 8s 6s 20 25 mph 1012mb 83f 84f
4:50 7ft 8s 6s 25 27 mph 1011.1mb 83f 84f
3:50 7.5ft 8s 6s 22 27 mph 1011.6mb 83f 84f
2:50 7ft 8s 6s 20 22 mph 1011.9mb 83f 84f
1:50 7ft 8s 6s 22 25 mph 1011.8mb 83f 84f
12:50 7.5ft 8s 6s 22 29 mph 1012.5mb 83f 84f
11:50 7ft 8s 6s 22 25 mph 1012.9mb 83f 84f
10:50 8ft 8s 6s 20 25 mph 1013.6mb 83f 83f
9:50 8ft 8s 6s 22 27 mph 1013.7mb 83f 83f
8:50 8.5ft 8s 6s 20 22 mph 1013.4mb 83f 83f
7:50 8ft 8s 6s 22 27 mph 1013.1mb 83f 83f
6:50 8ft 8s 6s 25 29 mph 1012.2mb 83f 83f
5:50 8ft 8s 6s 25 29 mph 1011.9mb 83f 83f
4:50 8ft 8s 6s 25 29 mph 1011.6mb 83f 83f
3:50 9ft 8s 6s 25 29 mph 1011.1mb 83f 83f
2:50 9ft 8s 6s 27 31 mph 1010.8mb 83f 83f
1:50 8ft 8s 6s 25 31 mph 1011.1mb 83f 83f
12:50 8ft 8s 6s 25 29 mph 1011.7mb 83f 83f
Sa 09/13 11:50 8ft 7s 6s 22 25 mph 1012.2mb 83f 83f
10:50 8ft 8s 6s 25 29 mph 1012.7mb 83f 83f
9:50 8ft 8s 6s 22 27 mph 1012.7mb 83f 83f
8:50 8ft 8s 6s 27 31 mph 1011.9mb 83f 83f
7:50 9ft 8s 6s 25 31 mph 1011.5mb 83f 83f
6:50 7.5ft 8s 6s 25 31 mph 1010.9mb 83f 83f
5:50 8ft 8s 6s 25 29 mph 1010.6mb 83f 84f
4:50 8ft 8s 6s 22 27 mph 1010.4mb 83f 84f
3:50 8.5ft 8s 6s 25 29 mph 1010.2mb 83f 84f
2:50 9ft 8s 6s 25 27 mph 1010.7mb 83f 84f
1:50 8.5ft 8s 6s 22 27 mph 1011.5mb 83f 84f
12:50 8.5ft 8s 6s 22 29 mph 1012.2mb 83f 84f
11:50 9ft 8s 6s 25 29 mph 1012.5mb 83f 84f
10:50 9ft 8s 6s 25 29 mph 1012.4mb 83f 84f
9:50 8.5ft 8s 6s 27 31 mph 1012.5mb 83f 84f
8:50 9ft 8s 6s 27 34 mph 1012.1mb 83f 84f
7:50 9ft 7s 6s 27 34 mph 1011.8mb 83f 84f
6:50 8ft 8s 6s 27 31 mph 1011.3mb 83f 84f
5:50 8.5ft 8s 6s 27 34 mph 1010.8mb 83f 83f
4:50 8ft 8s 6s 25 31 mph 1010.4mb 83f 83f
2:50 8ft 8s 6s 27 31 mph 1010.1mb 83f 84f
1:50 8ft 8s 6s 25 29 mph 1010.4mb 83f 83f
12:50 7ft 8s 6s 25 29 mph 1011.1mb 83f 83f
Fr 09/12 11:50 6.5ft 8s 5s 25 29 mph 1011.5mb 83f 83f
10:50 6.5ft 8s 5s 22 29 mph 1011.5mb 83f 83f
9:50 6.5ft 7s 5s 20 25 mph 1011.5mb 83f 83f
8:50 6.5ft 8s 5s 20 25 mph 1011.2mb 83f 83f
7:50 6ft 7s 5s 20 27 mph 1010.4mb 83f 83f
6:50 6ft 8s 5s 20 25 mph 1009.9mb 83f 83f
5:50 6ft 8s 6s 20 25 mph 1009.6mb 83f 83f
4:50 6.5ft 7s 6s 18 22 mph 1009.2mb 83f 82f
3:50 6.5ft 7s 6s 18 25 mph 1009.4mb 83f 84f
2:50 6ft 8s 6s 18 22 mph 1009.8mb 84f 83f
1:50 6ft 8s 5s 18 20 mph 1010.5mb 83f 84f
12:50 6ft 8s 5s 20 22 mph 1011.2mb 83f 84f